sensor_id;sensor_type;location;lat;lon;timestamp;P1;durP1;ratioP1;P2;durP2;ratioP2
39994;SDS011;25686;51.908;10.418;2022-12-07T00:00:45;25.37;;;13.37;;
39994;SDS011;25686;51.908;10.418;2022-12-07T00:02:47;30.33;;;14.17;;
39994;SDS011;25686;51.908;10.418;2022-12-07T00:04:48;24.53;;;13.30;;
39994;SDS011;25686;51.908;10.418;2022-12-07T00:06:52;24.70;;;13.60;;
39994;SDS011;25686;51.908;10.418;2022-12-07T00:08:53;25.00;;;13.60;;
39994;SDS011;25686;51.908;10.418;2022-12-07T00:10:54;26.93;;;14.17;;
39994;SDS011;25686;51.908;10.418;2022-12-07T00:12:56;27.60;;;13.50;;
39994;SDS011;25686;51.908;10.418;2022-12-07T00:14:57;29.80;;;15.07;;
39994;SDS011;25686;51.908;10.418;2022-12-07T00:16:58;27.33;;;14.60;;
39994;SDS011;25686;51.908;10.418;2022-12-07T00:18:59;30.10;;;15.40;;
39994;SDS011;25686;51.908;10.418;2022-12-07T00:21:01;26.80;;;14.80;;
39994;SDS011;25686;51.908;10.418;2022-12-07T00:23:02;32.30;;;16.13;;
39994;SDS011;25686;51.908;10.418;2022-12-07T00:25:03;31.63;;;16.30;;
39994;SDS011;25686;51.908;10.418;2022-12-07T00:27:04;34.27;;;17.23;;
39994;SDS011;25686;51.908;10.418;2022-12-07T00:29:07;29.00;;;14.33;;
39994;SDS011;25686;51.908;10.418;2022-12-07T00:31:09;33.13;;;16.33;;
39994;SDS011;25686;51.908;10.418;2022-12-07T00:33:10;33.80;;;16.40;;
39994;SDS011;25686;51.908;10.418;2022-12-07T00:35:11;31.93;;;15.90;;
39994;SDS011;25686;51.908;10.418;2022-12-07T00:37:13;34.17;;;17.00;;
39994;SDS011;25686;51.908;10.418;2022-12-07T00:39:14;37.20;;;16.70;;
39994;SDS011;25686;51.908;10.418;2022-12-07T00:41:21;32.43;;;15.97;;
39994;SDS011;25686;51.908;10.418;2022-12-07T00:43:23;33.37;;;16.37;;
39994;SDS011;25686;51.908;10.418;2022-12-07T00:45:24;35.83;;;17.03;;
39994;SDS011;25686;51.908;10.418;2022-12-07T00:47:25;36.93;;;16.50;;
39994;SDS011;25686;51.908;10.418;2022-12-07T00:49:26;33.50;;;16.43;;
39994;SDS011;25686;51.908;10.418;2022-12-07T00:51:27;38.57;;;17.43;;
39994;SDS011;25686;51.908;10.418;2022-12-07T00:53:28;35.37;;;16.83;;
39994;SDS011;25686;51.908;10.418;2022-12-07T00:55:32;38.03;;;17.60;;
39994;SDS011;25686;51.908;10.418;2022-12-07T00:57:33;35.10;;;16.97;;
39994;SDS011;25686;51.908;10.418;2022-12-07T00:59:34;35.33;;;18.13;;
39994;SDS011;25686;51.908;10.418;2022-12-07T01:01:36;33.70;;;16.73;;
39994;SDS011;25686;51.908;10.418;2022-12-07T01:03:37;33.70;;;16.77;;
39994;SDS011;25686;51.908;10.418;2022-12-07T01:05:38;32.80;;;16.80;;
39994;SDS011;25686;51.908;10.418;2022-12-07T01:07:39;34.37;;;17.87;;
39994;SDS011;25686;51.908;10.418;2022-12-07T01:09:40;33.47;;;16.83;;
39994;SDS011;25686;51.908;10.418;2022-12-07T01:11:41;32.50;;;17.57;;
39994;SDS011;25686;51.908;10.418;2022-12-07T01:13:43;30.67;;;16.87;;
39994;SDS011;25686;51.908;10.418;2022-12-07T01:15:44;29.87;;;17.20;;
39994;SDS011;25686;51.908;10.418;2022-12-07T01:17:45;30.43;;;16.17;;
39994;SDS011;25686;51.908;10.418;2022-12-07T01:19:46;27.90;;;15.27;;
39994;SDS011;25686;51.908;10.418;2022-12-07T01:21:47;28.30;;;15.40;;
39994;SDS011;25686;51.908;10.418;2022-12-07T01:23:49;25.00;;;14.67;;
39994;SDS011;25686;51.908;10.418;2022-12-07T01:25:59;23.67;;;13.50;;
39994;SDS011;25686;51.908;10.418;2022-12-07T01:28:00;20.00;;;12.50;;
39994;SDS011;25686;51.908;10.418;2022-12-07T01:30:02;20.77;;;13.13;;
39994;SDS011;25686;51.908;10.418;2022-12-07T01:32:04;20.63;;;12.37;;
39994;SDS011;25686;51.908;10.418;2022-12-07T01:34:05;24.27;;;12.63;;
39994;SDS011;25686;51.908;10.418;2022-12-07T01:36:07;21.13;;;12.37;;
39994;SDS011;25686;51.908;10.418;2022-12-07T01:38:09;18.57;;;11.63;;
39994;SDS011;25686;51.908;10.418;2022-12-07T01:40:10;18.40;;;11.30;;
39994;SDS011;25686;51.908;10.418;2022-12-07T01:42:11;18.83;;;11.50;;
39994;SDS011;25686;51.908;10.418;2022-12-07T01:46:20;18.83;;;11.30;;
39994;SDS011;25686;51.908;10.418;2022-12-07T01:48:25;17.63;;;11.43;;
39994;SDS011;25686;51.908;10.418;2022-12-07T01:50:27;17.87;;;11.50;;
39994;SDS011;25686;51.908;10.418;2022-12-07T01:52:30;17.30;;;11.37;;
39994;SDS011;25686;51.908;10.418;2022-12-07T01:54:31;17.17;;;11.03;;
39994;SDS011;25686;51.908;10.418;2022-12-07T01:56:33;17.20;;;11.03;;
39994;SDS011;25686;51.908;10.418;2022-12-07T01:58:34;19.60;;;12.03;;
39994;SDS011;25686;51.908;10.418;2022-12-07T02:00:36;17.27;;;11.47;;
39994;SDS011;25686;51.908;10.418;2022-12-07T02:02:38;18.17;;;11.83;;
39994;SDS011;25686;51.908;10.418;2022-12-07T02:04:39;18.63;;;12.33;;
39994;SDS011;25686;51.908;10.418;2022-12-07T02:06:40;18.50;;;12.27;;
39994;SDS011;25686;51.908;10.418;2022-12-07T02:08:42;17.93;;;11.63;;
39994;SDS011;25686;51.908;10.418;2022-12-07T02:10:43;18.23;;;11.73;;
39994;SDS011;25686;51.908;10.418;2022-12-07T02:12:44;18.00;;;11.93;;
39994;SDS011;25686;51.908;10.418;2022-12-07T02:14:47;19.00;;;11.73;;
39994;SDS011;25686;51.908;10.418;2022-12-07T02:17:01;17.13;;;12.00;;
39994;SDS011;25686;51.908;10.418;2022-12-07T02:21:15;16.03;;;10.83;;
39994;SDS011;25686;51.908;10.418;2022-12-07T02:27:50;18.53;;;11.63;;
39994;SDS011;25686;51.908;10.418;2022-12-07T02:30:12;15.83;;;11.03;;
39994;SDS011;25686;51.908;10.418;2022-12-07T02:32:16;14.93;;;9.67;;
39994;SDS011;25686;51.908;10.418;2022-12-07T02:34:30;17.07;;;10.60;;
39994;SDS011;25686;51.908;10.418;2022-12-07T02:36:32;14.97;;;10.07;;
39994;SDS011;25686;51.908;10.418;2022-12-07T02:42:41;14.80;;;10.10;;
39994;SDS011;25686;51.908;10.418;2022-12-07T02:44:43;15.27;;;10.07;;
39994;SDS011;25686;51.908;10.418;2022-12-07T02:46:54;15.70;;;10.03;;
39994;SDS011;25686;51.908;10.418;2022-12-07T02:48:56;14.40;;;9.87;;
39994;SDS011;25686;51.908;10.418;2022-12-07T02:50:59;14.37;;;10.03;;
39994;SDS011;25686;51.908;10.418;2022-12-07T02:53:00;14.23;;;9.43;;
39994;SDS011;25686;51.908;10.418;2022-12-07T02:55:01;14.50;;;9.73;;
39994;SDS011;25686;51.908;10.418;2022-12-07T03:01:26;14.60;;;9.63;;
39994;SDS011;25686;51.908;10.418;2022-12-07T03:03:28;16.07;;;10.50;;
39994;SDS011;25686;51.908;10.418;2022-12-07T03:12:24;11.90;;;8.03;;
39994;SDS011;25686;51.908;10.418;2022-12-07T03:14:30;13.13;;;8.33;;
39994;SDS011;25686;51.908;10.418;2022-12-07T03:16:33;10.87;;;7.33;;
39994;SDS011;25686;51.908;10.418;2022-12-07T03:18:38;11.90;;;7.53;;
39994;SDS011;25686;51.908;10.418;2022-12-07T03:20:39;10.23;;;6.80;;
39994;SDS011;25686;51.908;10.418;2022-12-07T03:22:42;10.93;;;7.30;;
39994;SDS011;25686;51.908;10.418;2022-12-07T03:24:46;12.60;;;7.80;;
39994;SDS011;25686;51.908;10.418;2022-12-07T03:26:52;17.33;;;8.30;;
39994;SDS011;25686;51.908;10.418;2022-12-07T03:28:55;15.83;;;9.40;;
39994;SDS011;25686;51.908;10.418;2022-12-07T03:31:13;15.80;;;10.17;;
39994;SDS011;25686;51.908;10.418;2022-12-07T03:33:20;16.80;;;10.20;;
39994;SDS011;25686;51.908;10.418;2022-12-07T03:37:37;19.37;;;11.63;;
39994;SDS011;25686;51.908;10.418;2022-12-07T03:39:44;21.40;;;12.90;;
39994;SDS011;25686;51.908;10.418;2022-12-07T03:41:45;23.20;;;12.27;;
39994;SDS011;25686;51.908;10.418;2022-12-07T03:43:46;24.50;;;13.73;;
39994;SDS011;25686;51.908;10.418;2022-12-07T03:46:00;27.20;;;15.23;;
39994;SDS011;25686;51.908;10.418;2022-12-07T03:48:07;25.03;;;13.77;;
39994;SDS011;25686;51.908;10.418;2022-12-07T03:50:56;25.57;;;13.80;;
39994;SDS011;25686;51.908;10.418;2022-12-07T03:52:32;22.80;;;13.80;;
39994;SDS011;25686;51.908;10.418;2022-12-07T03:56:47;23.97;;;13.07;;
39994;SDS011;25686;51.908;10.418;2022-12-07T03:58:48;23.70;;;13.00;;
39994;SDS011;25686;51.908;10.418;2022-12-07T04:00:50;23.77;;;12.50;;
39994;SDS011;25686;51.908;10.418;2022-12-07T04:02:52;24.23;;;11.80;;
39994;SDS011;25686;51.908;10.418;2022-12-07T04:04:53;23.93;;;13.10;;
39994;SDS011;25686;51.908;10.418;2022-12-07T04:06:54;25.20;;;13.20;;
39994;SDS011;25686;51.908;10.418;2022-12-07T04:08:55;25.63;;;13.67;;
39994;SDS011;25686;51.908;10.418;2022-12-07T04:10:56;22.70;;;12.93;;
39994;SDS011;25686;51.908;10.418;2022-12-07T04:12:57;21.33;;;12.23;;
39994;SDS011;25686;51.908;10.418;2022-12-07T04:14:58;25.97;;;12.73;;
39994;SDS011;25686;51.908;10.418;2022-12-07T04:16:59;22.50;;;12.60;;
39994;SDS011;25686;51.908;10.418;2022-12-07T04:19:00;23.97;;;12.23;;
39994;SDS011;25686;51.908;10.418;2022-12-07T04:21:01;21.10;;;12.00;;
39994;SDS011;25686;51.908;10.418;2022-12-07T04:23:02;21.10;;;12.23;;
39994;SDS011;25686;51.908;10.418;2022-12-07T04:25:03;26.03;;;12.57;;
39994;SDS011;25686;51.908;10.418;2022-12-07T04:27:04;24.63;;;12.53;;
39994;SDS011;25686;51.908;10.418;2022-12-07T04:29:05;25.23;;;12.37;;
39994;SDS011;25686;51.908;10.418;2022-12-07T04:31:06;21.20;;;11.67;;
39994;SDS011;25686;51.908;10.418;2022-12-07T04:33:07;22.77;;;12.00;;
39994;SDS011;25686;51.908;10.418;2022-12-07T04:35:08;22.10;;;12.13;;
39994;SDS011;25686;51.908;10.418;2022-12-07T04:37:09;23.10;;;12.50;;
39994;SDS011;25686;51.908;10.418;2022-12-07T04:39:18;23.53;;;12.30;;
39994;SDS011;25686;51.908;10.418;2022-12-07T04:41:19;27.77;;;13.47;;
39994;SDS011;25686;51.908;10.418;2022-12-07T04:43:26;26.70;;;12.83;;
39994;SDS011;25686;51.908;10.418;2022-12-07T04:45:27;28.33;;;12.47;;
39994;SDS011;25686;51.908;10.418;2022-12-07T04:47:28;26.27;;;13.20;;
39994;SDS011;25686;51.908;10.418;2022-12-07T04:49:29;23.90;;;12.90;;
39994;SDS011;25686;51.908;10.418;2022-12-07T04:51:30;23.30;;;12.10;;
39994;SDS011;25686;51.908;10.418;2022-12-07T04:53:31;26.77;;;13.03;;
39994;SDS011;25686;51.908;10.418;2022-12-07T04:55:32;24.77;;;12.43;;
39994;SDS011;25686;51.908;10.418;2022-12-07T04:57:33;25.47;;;12.97;;
39994;SDS011;25686;51.908;10.418;2022-12-07T04:59:34;21.77;;;11.43;;
39994;SDS011;25686;51.908;10.418;2022-12-07T05:01:35;26.23;;;12.13;;
39994;SDS011;25686;51.908;10.418;2022-12-07T05:03:36;21.73;;;11.53;;
39994;SDS011;25686;51.908;10.418;2022-12-07T05:05:40;26.30;;;12.87;;
39994;SDS011;25686;51.908;10.418;2022-12-07T05:07:41;25.80;;;12.53;;
39994;SDS011;25686;51.908;10.418;2022-12-07T05:09:42;25.53;;;12.87;;
39994;SDS011;25686;51.908;10.418;2022-12-07T05:11:43;27.20;;;13.33;;
39994;SDS011;25686;51.908;10.418;2022-12-07T05:13:44;29.83;;;12.67;;
39994;SDS011;25686;51.908;10.418;2022-12-07T05:15:48;25.00;;;12.00;;
39994;SDS011;25686;51.908;10.418;2022-12-07T05:17:49;30.43;;;13.03;;
39994;SDS011;25686;51.908;10.418;2022-12-07T05:19:52;25.33;;;12.30;;
39994;SDS011;25686;51.908;10.418;2022-12-07T05:21:53;30.73;;;14.00;;
39994;SDS011;25686;51.908;10.418;2022-12-07T05:23:54;26.33;;;12.60;;
39994;SDS011;25686;51.908;10.418;2022-12-07T05:25:55;24.67;;;11.80;;
39994;SDS011;25686;51.908;10.418;2022-12-07T05:27:56;26.97;;;12.07;;
39994;SDS011;25686;51.908;10.418;2022-12-07T05:29:57;29.80;;;12.33;;
39994;SDS011;25686;51.908;10.418;2022-12-07T05:31:58;24.10;;;12.20;;
39994;SDS011;25686;51.908;10.418;2022-12-07T05:33:59;22.80;;;11.83;;
39994;SDS011;25686;51.908;10.418;2022-12-07T05:36:00;24.10;;;12.37;;
39994;SDS011;25686;51.908;10.418;2022-12-07T05:38:07;29.43;;;13.07;;
39994;SDS011;25686;51.908;10.418;2022-12-07T05:40:08;22.77;;;12.80;;
39994;SDS011;25686;51.908;10.418;2022-12-07T05:42:10;23.80;;;12.43;;
39994;SDS011;25686;51.908;10.418;2022-12-07T05:44:14;25.57;;;11.23;;
39994;SDS011;25686;51.908;10.418;2022-12-07T05:46:15;22.50;;;12.00;;
39994;SDS011;25686;51.908;10.418;2022-12-07T05:48:16;24.53;;;12.43;;
39994;SDS011;25686;51.908;10.418;2022-12-07T05:50:17;23.83;;;11.50;;
39994;SDS011;25686;51.908;10.418;2022-12-07T05:52:18;24.97;;;10.90;;
39994;SDS011;25686;51.908;10.418;2022-12-07T05:54:19;21.80;;;10.50;;
39994;SDS011;25686;51.908;10.418;2022-12-07T05:56:20;30.77;;;10.90;;
39994;SDS011;25686;51.908;10.418;2022-12-07T05:58:21;22.30;;;11.27;;
39994;SDS011;25686;51.908;10.418;2022-12-07T06:00:41;22.93;;;10.07;;
39994;SDS011;25686;51.908;10.418;2022-12-07T06:02:42;23.90;;;8.60;;
39994;SDS011;25686;51.908;10.418;2022-12-07T06:04:44;20.83;;;10.20;;
39994;SDS011;25686;51.908;10.418;2022-12-07T06:06:45;22.30;;;10.20;;
39994;SDS011;25686;51.908;10.418;2022-12-07T06:08:46;22.13;;;10.07;;
39994;SDS011;25686;51.908;10.418;2022-12-07T06:10:47;19.87;;;10.53;;
39994;SDS011;25686;51.908;10.418;2022-12-07T06:13:08;21.90;;;10.23;;
39994;SDS011;25686;51.908;10.418;2022-12-07T06:15:10;23.83;;;10.63;;
39994;SDS011;25686;51.908;10.418;2022-12-07T06:17:13;27.47;;;10.90;;
39994;SDS011;25686;51.908;10.418;2022-12-07T06:19:14;20.63;;;9.53;;
39994;SDS011;25686;51.908;10.418;2022-12-07T06:21:15;27.10;;;10.50;;
39994;SDS011;25686;51.908;10.418;2022-12-07T06:23:16;27.67;;;9.90;;
39994;SDS011;25686;51.908;10.418;2022-12-07T06:25:17;23.93;;;10.20;;
39994;SDS011;25686;51.908;10.418;2022-12-07T06:27:18;21.37;;;9.63;;
39994;SDS011;25686;51.908;10.418;2022-12-07T06:29:19;21.47;;;11.00;;
39994;SDS011;25686;51.908;10.418;2022-12-07T06:31:20;27.07;;;10.03;;
39994;SDS011;25686;51.908;10.418;2022-12-07T06:33:21;23.37;;;10.23;;
39994;SDS011;25686;51.908;10.418;2022-12-07T06:35:22;27.87;;;10.10;;
39994;SDS011;25686;51.908;10.418;2022-12-07T06:37:23;25.20;;;10.40;;
39994;SDS011;25686;51.908;10.418;2022-12-07T06:39:25;22.27;;;10.20;;
39994;SDS011;25686;51.908;10.418;2022-12-07T06:41:26;22.73;;;10.50;;
39994;SDS011;25686;51.908;10.418;2022-12-07T06:43:28;18.83;;;8.73;;
39994;SDS011;25686;51.908;10.418;2022-12-07T06:45:29;23.97;;;9.93;;
39994;SDS011;25686;51.908;10.418;2022-12-07T06:47:30;25.03;;;9.83;;
39994;SDS011;25686;51.908;10.418;2022-12-07T06:49:31;23.87;;;9.70;;
39994;SDS011;25686;51.908;10.418;2022-12-07T06:51:32;20.63;;;8.30;;
39994;SDS011;25686;51.908;10.418;2022-12-07T06:53:36;24.20;;;10.87;;
39994;SDS011;25686;51.908;10.418;2022-12-07T06:55:37;19.30;;;10.20;;
39994;SDS011;25686;51.908;10.418;2022-12-07T06:57:38;23.40;;;10.43;;
39994;SDS011;25686;51.908;10.418;2022-12-07T06:59:39;25.43;;;10.90;;
39994;SDS011;25686;51.908;10.418;2022-12-07T07:01:40;25.57;;;11.13;;
39994;SDS011;25686;51.908;10.418;2022-12-07T07:03:42;23.03;;;10.27;;
39994;SDS011;25686;51.908;10.418;2022-12-07T07:05:43;23.67;;;11.07;;
39994;SDS011;25686;51.908;10.418;2022-12-07T07:07:44;22.97;;;9.90;;
39994;SDS011;25686;51.908;10.418;2022-12-07T07:09:46;24.27;;;10.43;;
39994;SDS011;25686;51.908;10.418;2022-12-07T07:11:47;21.70;;;10.50;;
39994;SDS011;25686;51.908;10.418;2022-12-07T07:13:48;19.30;;;10.47;;
39994;SDS011;25686;51.908;10.418;2022-12-07T07:15:49;19.47;;;10.27;;
39994;SDS011;25686;51.908;10.418;2022-12-07T07:17:50;21.77;;;10.17;;
39994;SDS011;25686;51.908;10.418;2022-12-07T07:19:51;23.83;;;9.50;;
39994;SDS011;25686;51.908;10.418;2022-12-07T07:21:52;22.03;;;10.23;;
39994;SDS011;25686;51.908;10.418;2022-12-07T07:23:53;20.10;;;10.33;;
39994;SDS011;25686;51.908;10.418;2022-12-07T07:25:54;19.63;;;9.87;;
39994;SDS011;25686;51.908;10.418;2022-12-07T07:27:55;24.93;;;9.93;;
39994;SDS011;25686;51.908;10.418;2022-12-07T07:29:56;21.30;;;9.37;;
39994;SDS011;25686;51.908;10.418;2022-12-07T07:31:57;21.60;;;10.00;;
39994;SDS011;25686;51.908;10.418;2022-12-07T07:33:58;20.53;;;9.40;;
39994;SDS011;25686;51.908;10.418;2022-12-07T07:35:59;17.77;;;10.20;;
39994;SDS011;25686;51.908;10.418;2022-12-07T07:38:00;23.07;;;10.50;;
39994;SDS011;25686;51.908;10.418;2022-12-07T07:40:02;17.63;;;10.10;;
39994;SDS011;25686;51.908;10.418;2022-12-07T07:42:03;19.00;;;10.27;;
39994;SDS011;25686;51.908;10.418;2022-12-07T07:44:04;18.40;;;9.27;;
39994;SDS011;25686;51.908;10.418;2022-12-07T07:46:05;20.00;;;9.33;;
39994;SDS011;25686;51.908;10.418;2022-12-07T07:48:06;19.40;;;9.23;;
39994;SDS011;25686;51.908;10.418;2022-12-07T07:50:07;12.90;;;8.53;;
39994;SDS011;25686;51.908;10.418;2022-12-07T07:52:08;14.10;;;7.83;;
39994;SDS011;25686;51.908;10.418;2022-12-07T07:54:09;13.47;;;6.93;;
39994;SDS011;25686;51.908;10.418;2022-12-07T07:56:10;10.90;;;6.40;;
39994;SDS011;25686;51.908;10.418;2022-12-07T07:58:11;10.40;;;5.83;;
39994;SDS011;25686;51.908;10.418;2022-12-07T08:00:13;9.80;;;6.40;;
39994;SDS011;25686;51.908;10.418;2022-12-07T08:02:15;12.30;;;6.70;;
39994;SDS011;25686;51.908;10.418;2022-12-07T08:04:17;9.27;;;6.17;;
39994;SDS011;25686;51.908;10.418;2022-12-07T08:06:18;9.27;;;6.40;;
39994;SDS011;25686;51.908;10.418;2022-12-07T08:08:19;12.37;;;7.10;;
39994;SDS011;25686;51.908;10.418;2022-12-07T08:10:20;11.80;;;6.60;;
39994;SDS011;25686;51.908;10.418;2022-12-07T08:12:21;11.77;;;6.40;;
39994;SDS011;25686;51.908;10.418;2022-12-07T08:14:22;8.67;;;6.00;;
39994;SDS011;25686;51.908;10.418;2022-12-07T08:16:23;10.57;;;6.10;;
39994;SDS011;25686;51.908;10.418;2022-12-07T08:18:24;10.40;;;6.37;;
39994;SDS011;25686;51.908;10.418;2022-12-07T08:20:25;9.67;;;6.23;;
39994;SDS011;25686;51.908;10.418;2022-12-07T08:22:26;13.50;;;6.77;;
39994;SDS011;25686;51.908;10.418;2022-12-07T08:24:27;8.83;;;6.33;;
39994;SDS011;25686;51.908;10.418;2022-12-07T08:26:28;11.97;;;6.63;;
39994;SDS011;25686;51.908;10.418;2022-12-07T08:28:29;12.00;;;6.77;;
39994;SDS011;25686;51.908;10.418;2022-12-07T08:30:31;9.83;;;6.00;;
39994;SDS011;25686;51.908;10.418;2022-12-07T08:32:32;8.17;;;5.87;;
39994;SDS011;25686;51.908;10.418;2022-12-07T08:34:33;10.20;;;5.77;;
39994;SDS011;25686;51.908;10.418;2022-12-07T08:36:35;8.67;;;5.07;;
39994;SDS011;25686;51.908;10.418;2022-12-07T08:38:37;12.97;;;5.70;;
39994;SDS011;25686;51.908;10.418;2022-12-07T08:40:38;7.93;;;5.47;;
39994;SDS011;25686;51.908;10.418;2022-12-07T08:42:41;9.30;;;4.90;;
39994;SDS011;25686;51.908;10.418;2022-12-07T08:44:42;9.53;;;5.53;;
39994;SDS011;25686;51.908;10.418;2022-12-07T08:46:53;11.60;;;5.67;;
39994;SDS011;25686;51.908;10.418;2022-12-07T08:49:20;9.70;;;5.77;;
39994;SDS011;25686;51.908;10.418;2022-12-07T08:51:18;10.20;;;5.70;;
39994;SDS011;25686;51.908;10.418;2022-12-07T08:53:19;10.33;;;5.93;;
39994;SDS011;25686;51.908;10.418;2022-12-07T08:55:21;9.23;;;5.70;;
39994;SDS011;25686;51.908;10.418;2022-12-07T08:57:22;11.23;;;5.53;;
39994;SDS011;25686;51.908;10.418;2022-12-07T08:59:23;10.17;;;5.50;;
39994;SDS011;25686;51.908;10.418;2022-12-07T09:01:24;10.30;;;5.23;;
39994;SDS011;25686;51.908;10.418;2022-12-07T09:03:25;10.90;;;5.43;;
39994;SDS011;25686;51.908;10.418;2022-12-07T09:05:26;16.03;;;6.00;;
39994;SDS011;25686;51.908;10.418;2022-12-07T09:07:27;10.03;;;5.47;;
39994;SDS011;25686;51.908;10.418;2022-12-07T09:09:28;9.63;;;5.20;;
39994;SDS011;25686;51.908;10.418;2022-12-07T09:11:29;11.80;;;6.03;;
39994;SDS011;25686;51.908;10.418;2022-12-07T09:13:30;12.07;;;5.33;;
39994;SDS011;25686;51.908;10.418;2022-12-07T09:15:31;9.17;;;5.10;;
39994;SDS011;25686;51.908;10.418;2022-12-07T09:17:32;14.23;;;5.03;;
39994;SDS011;25686;51.908;10.418;2022-12-07T09:19:33;10.43;;;4.80;;
39994;SDS011;25686;51.908;10.418;2022-12-07T09:21:34;8.73;;;4.70;;
39994;SDS011;25686;51.908;10.418;2022-12-07T09:23:35;12.10;;;5.07;;
39994;SDS011;25686;51.908;10.418;2022-12-07T09:25:37;12.83;;;6.60;;
39994;SDS011;25686;51.908;10.418;2022-12-07T09:27:38;15.57;;;5.63;;
39994;SDS011;25686;51.908;10.418;2022-12-07T09:29:39;11.90;;;5.63;;
39994;SDS011;25686;51.908;10.418;2022-12-07T09:31:40;9.10;;;5.03;;
39994;SDS011;25686;51.908;10.418;2022-12-07T09:33:41;12.23;;;5.20;;
39994;SDS011;25686;51.908;10.418;2022-12-07T09:35:46;13.70;;;5.23;;
39994;SDS011;25686;51.908;10.418;2022-12-07T09:37:47;10.20;;;4.43;;
39994;SDS011;25686;51.908;10.418;2022-12-07T09:39:48;9.90;;;4.70;;
39994;SDS011;25686;51.908;10.418;2022-12-07T09:41:49;10.77;;;4.53;;
39994;SDS011;25686;51.908;10.418;2022-12-07T09:43:50;8.23;;;4.83;;
39994;SDS011;25686;51.908;10.418;2022-12-07T09:45:52;11.10;;;4.73;;
39994;SDS011;25686;51.908;10.418;2022-12-07T09:47:54;11.90;;;4.90;;
39994;SDS011;25686;51.908;10.418;2022-12-07T09:49:58;10.47;;;4.50;;
39994;SDS011;25686;51.908;10.418;2022-12-07T09:52:16;11.37;;;4.33;;
39994;SDS011;25686;51.908;10.418;2022-12-07T09:54:18;10.67;;;4.40;;
39994;SDS011;25686;51.908;10.418;2022-12-07T09:56:19;8.80;;;4.53;;
39994;SDS011;25686;51.908;10.418;2022-12-07T09:58:23;8.63;;;3.67;;
39994;SDS011;25686;51.908;10.418;2022-12-07T10:00:26;15.03;;;4.73;;
39994;SDS011;25686;51.908;10.418;2022-12-07T10:04:29;9.40;;;4.40;;
39994;SDS011;25686;51.908;10.418;2022-12-07T10:06:30;9.37;;;4.30;;
39994;SDS011;25686;51.908;10.418;2022-12-07T10:08:31;11.20;;;4.70;;
39994;SDS011;25686;51.908;10.418;2022-12-07T10:10:33;9.27;;;4.07;;
39994;SDS011;25686;51.908;10.418;2022-12-07T10:12:52;9.10;;;4.10;;
39994;SDS011;25686;51.908;10.418;2022-12-07T10:16:54;10.43;;;4.33;;
39994;SDS011;25686;51.908;10.418;2022-12-07T10:18:55;11.77;;;4.03;;
39994;SDS011;25686;51.908;10.418;2022-12-07T10:21:15;8.53;;;3.50;;
39994;SDS011;25686;51.908;10.418;2022-12-07T10:23:17;8.80;;;3.90;;
39994;SDS011;25686;51.908;10.418;2022-12-07T10:25:19;7.13;;;3.97;;
39994;SDS011;25686;51.908;10.418;2022-12-07T10:27:30;10.30;;;3.70;;
39994;SDS011;25686;51.908;10.418;2022-12-07T10:31:32;7.93;;;4.57;;
39994;SDS011;25686;51.908;10.418;2022-12-07T10:33:37;7.23;;;4.27;;
39994;SDS011;25686;51.908;10.418;2022-12-07T10:35:42;7.00;;;3.90;;
39994;SDS011;25686;51.908;10.418;2022-12-07T10:37:43;8.13;;;3.90;;
39994;SDS011;25686;51.908;10.418;2022-12-07T10:39:47;8.23;;;3.57;;
39994;SDS011;25686;51.908;10.418;2022-12-07T10:43:56;6.37;;;3.60;;
39994;SDS011;25686;51.908;10.418;2022-12-07T10:54:40;6.63;;;3.30;;
39994;SDS011;25686;51.908;10.418;2022-12-07T10:56:53;7.97;;;3.90;;
39994;SDS011;25686;51.908;10.418;2022-12-07T11:05:18;8.50;;;3.70;;
39994;SDS011;25686;51.908;10.418;2022-12-07T11:07:29;7.85;;;4.03;;
39994;SDS011;25686;51.908;10.418;2022-12-07T11:11:54;7.03;;;3.53;;
39994;SDS011;25686;51.908;10.418;2022-12-07T11:23:22;3.50;;;2.40;;
39994;SDS011;25686;51.908;10.418;2022-12-07T11:27:34;8.18;;;3.03;;
39994;SDS011;25686;51.908;10.418;2022-12-07T11:29:42;4.25;;;2.78;;
39994;SDS011;25686;51.908;10.418;2022-12-07T11:36:40;6.27;;;2.37;;
39994;SDS011;25686;51.908;10.418;2022-12-07T11:38:52;2.53;;;1.90;;
39994;SDS011;25686;51.908;10.418;2022-12-07T11:40:55;4.93;;;2.30;;
39994;SDS011;25686;51.908;10.418;2022-12-07T11:43:22;3.33;;;2.10;;
39994;SDS011;25686;51.908;10.418;2022-12-07T11:45:27;2.90;;;2.08;;
39994;SDS011;25686;51.908;10.418;2022-12-07T11:47:35;2.40;;;1.60;;
39994;SDS011;25686;51.908;10.418;2022-12-07T11:49:47;4.03;;;1.80;;
39994;SDS011;25686;51.908;10.418;2022-12-07T11:51:52;4.50;;;1.60;;
39994;SDS011;25686;51.908;10.418;2022-12-07T11:53:56;2.87;;;1.73;;
39994;SDS011;25686;51.908;10.418;2022-12-07T11:56:12;1.67;;;1.50;;
39994;SDS011;25686;51.908;10.418;2022-12-07T12:00:21;2.90;;;1.50;;
39994;SDS011;25686;51.908;10.418;2022-12-07T12:02:31;2.63;;;2.00;;
39994;SDS011;25686;51.908;10.418;2022-12-07T12:04:49;2.67;;;2.00;;
39994;SDS011;25686;51.908;10.418;2022-12-07T12:06:52;5.57;;;2.30;;
39994;SDS011;25686;51.908;10.418;2022-12-07T12:09:05;3.33;;;1.90;;
39994;SDS011;25686;51.908;10.418;2022-12-07T12:11:18;3.63;;;2.30;;
39994;SDS011;25686;51.908;10.418;2022-12-07T12:15:37;7.47;;;2.40;;
39994;SDS011;25686;51.908;10.418;2022-12-07T12:17:47;5.77;;;2.70;;
39994;SDS011;25686;51.908;10.418;2022-12-07T12:22:09;10.83;;;2.53;;
39994;SDS011;25686;51.908;10.418;2022-12-07T12:24:14;6.57;;;2.57;;
39994;SDS011;25686;51.908;10.418;2022-12-07T12:26:20;8.13;;;2.80;;
39994;SDS011;25686;51.908;10.418;2022-12-07T12:30:24;13.20;;;3.13;;
39994;SDS011;25686;51.908;10.418;2022-12-07T12:32:39;9.27;;;2.53;;
39994;SDS011;25686;51.908;10.418;2022-12-07T12:34:41;7.57;;;2.97;;
39994;SDS011;25686;51.908;10.418;2022-12-07T12:36:57;5.97;;;2.90;;
39994;SDS011;25686;51.908;10.418;2022-12-07T12:41:10;7.40;;;3.10;;
39994;SDS011;25686;51.908;10.418;2022-12-07T12:43:45;6.97;;;3.10;;
39994;SDS011;25686;51.908;10.418;2022-12-07T12:45:49;9.27;;;2.70;;
39994;SDS011;25686;51.908;10.418;2022-12-07T12:54:32;6.40;;;2.60;;
39994;SDS011;25686;51.908;10.418;2022-12-07T12:56:46;7.13;;;2.67;;
39994;SDS011;25686;51.908;10.418;2022-12-07T12:58:49;7.53;;;3.07;;
39994;SDS011;25686;51.908;10.418;2022-12-07T13:03:30;12.80;;;4.30;;
39994;SDS011;25686;51.908;10.418;2022-12-07T13:05:34;10.53;;;2.93;;
39994;SDS011;25686;51.908;10.418;2022-12-07T13:09:50;7.60;;;2.47;;
39994;SDS011;25686;51.908;10.418;2022-12-07T13:12:01;8.83;;;2.47;;
39994;SDS011;25686;51.908;10.418;2022-12-07T13:16:40;8.57;;;2.40;;
39994;SDS011;25686;51.908;10.418;2022-12-07T13:18:42;8.30;;;2.67;;
39994;SDS011;25686;51.908;10.418;2022-12-07T13:20:44;10.67;;;2.77;;
39994;SDS011;25686;51.908;10.418;2022-12-07T13:22:48;6.70;;;2.37;;
39994;SDS011;25686;51.908;10.418;2022-12-07T13:24:49;6.83;;;2.40;;
39994;SDS011;25686;51.908;10.418;2022-12-07T13:26:55;9.40;;;2.60;;
39994;SDS011;25686;51.908;10.418;2022-12-07T13:31:20;6.27;;;2.83;;
39994;SDS011;25686;51.908;10.418;2022-12-07T13:33:22;8.17;;;3.10;;
39994;SDS011;25686;51.908;10.418;2022-12-07T13:35:34;9.57;;;2.40;;